Historyczne dane pomiarowe

Dodano dane terminowe – wersja testowa.

Dane z okresu 1951-2019

Wersja bazy: 1.34 [2019-03-16, lista zmian], aktualizacja planowana na 2019-04-15

Dane meteo z obszaru Polski uzyskane na podstawie danych udostępnionych przez Instytut Meteorologii i Gospodarki Wodnej – Państwowy Instytut Badawczy.

 

Wybierz Datę:    

       

TemperaturaWilgotnośćWiatrCiśnienieOpadyŚniegCzas trwania zjawisk
 Stacja t tx tn tng RH VA  wxwx mslp ppp RRR   cm mm wxwxwxwxwxwxwx
1961-08-14 14.2 19.8 5.9- 82.5- 5.7 2.3---- 0.9------------
1961-08-13 13.2 18.5 10.9- 83.0- 5.0 4.3---- 0.0------------
1961-08-12 16.7 20.9 12.8- 89.0- 8.0 3.0---- 0.0------------
1961-08-11 16.9 20.4 15.1- 98.8- 7.0 2.0---- 16.7------------
1961-08-10 21.7 28.2 17.8- 84.5- 5.7 3.3---- 0.0------------
1961-08-09 20.7 25.6 12.2- 77.8- 6.3 2.0---- 0.0------------
1961-08-08 18.9 23.3 7.6- 78.8- 4.3 2.7---- 0.0------------
1961-08-07 18.2 24.1 16.2- 89.5- 7.0 3.3---- 4.2------------
1961-08-06 22.0 31.2 15.3- 79.3- 3.7 3.7---- 20.5------------
1961-08-05 19.3 24.9 12.5- 81.0- 4.0 3.0---- 0.0------------
1961-08-04 15.2 18.4 6.3- 82.3- 8.0 4.0---- 0.2------------
1961-08-03 12.5 18.9 9.9- 95.5- 4.7 3.3---- 5.6------------
1961-08-02 15.1 22.0 8.2- 93.0- 5.0 2.0---- 1.4------------
1961-08-01 15.4 21.3 11.5- 75.3- 3.7 6.3---- 0.0------------
1961-07-31 13.4 15.0 12.7- 95.5- 8.0 5.0---- 28.0------------
1961-07-30 14.2 17.5 7.2- 86.8- 7.7 2.7---- 4.0------------
1961-07-29 13.5 18.9 11.7- 76.8- 5.7 4.3---- 0.0------------
1961-07-28 15.0 19.6 13.2- 91.8- 8.0 4.0---- 6.7------------
1961-07-27 19.2 26.2 14.5- 74.5- 5.3 5.3---- 0.5------------
1961-07-26 18.6 24.9 11.2- 64.8- 7.3 4.3---- 0.0------------
1961-07-25 13.7 18.1 11.4- 78.8- 8.0 3.3---- 0.0------------
1961-07-24 13.5 16.8 11.4- 79.3- 8.0 4.0---- 0.0------------
1961-07-23 13.7 18.2 12.2- 88.3- 6.7 4.3---- 0.0------------
1961-07-22 15.2 18.9 13.7- 84.8- 7.7 4.7---- 0.5------------
1961-07-21 14.7 16.4 13.8- 91.5- 8.0 5.3---- 2.6------------
1961-07-20 15.7 20.2 7.9- 81.0- 7.0 2.7---- 1.3------------
1961-07-19 14.1 19.0 10.3- 92.8- 7.7 3.3---- 1.9------------
1961-07-18 15.1 20.7 11.6- 80.8- 6.7 5.0---- 0.0------------
1961-07-17 13.6 17.9 9.2- 92.3- 6.7 4.0---- 14.6------------
1961-07-16 15.8 23.3 12.6- 83.3- 4.7 2.7---- 0.9------------
1961-07-15 18.8 24.5 13.5- 70.8- 5.7 3.7---- 2.0------------
1961-07-14 16.1 21.4 12.3- 63.8- 6.7 7.0---- 3.8------------
1961-07-13 18.7 25.4 15.2- 83.8- 5.3 4.7---- 8.3------------
1961-07-12 21.9 27.8 13.0- 66.8- 4.0 1.7---- 0.0------------
1961-07-11 17.0 22.3 7.5- 77.5- 7.7 3.3---- 0.0------------
1961-07-10 13.4 18.1 8.3- 79.3- 7.0 3.7---- 0.0------------
1961-07-09 13.8 19.6 10.3- 89.8- 6.3 4.0---- 3.7------------
1961-07-08 15.9 23.0 6.5- 69.8- 6.0 3.3---- 0.8------------
1961-07-07 12.9 17.5 8.9- 79.8- 6.7 3.0---- 0.0------------
1961-07-06 11.9 16.1 7.2- 88.3- 7.0 5.3---- 8.2------------
1961-07-05 12.1 17.8 9.3- 79.0- 3.3 7.0---- 2.0------------
1961-07-04 17.7 25.2 14.1- 77.8- 7.7 4.0---- 2.4------------
1961-07-03 24.6 33.4 13.5- 61.5- 3.7 3.0---- 0.0------------
1961-07-02 23.5 31.2 10.7- 62.3- 0.0 1.3---- 0.0------------
1961-07-01 22.2 28.6 10.6- 63.5- 0.7 1.3---- 0.0------------
1961-06-30 20.0 27.0 8.5- 72.3- 0.3 1.7---- 0.0------------
1961-06-29 16.5 22.6 8.6- 74.5- 1.3 3.3---- 0.0------------
1961-06-28 13.9 20.4 12.6- 72.8- 5.0 5.7---- 0.0------------
1961-06-27 22.2 28.1 16.8- 80.0- 5.7 3.7---- 8.8------------
1961-06-26 22.8 28.4 12.4- 68.5- 3.3 2.0---- 0.0------------
1961-06-25 21.3 29.4 11.0- 70.0- 2.0 3.3---- 0.0------------
1961-06-24 18.9 25.0 10.7- 76.3- 5.7 4.3---- 0.0------------
1961-06-23 17.6 22.3 14.8- 74.5- 3.0 4.3---- 0.0------------
1961-06-22 18.4 23.7 4.1- 69.0- 2.7 3.0---- 13.9------------
1961-06-21 15.0 23.4 5.1- 73.0- 3.7 2.3---- 0.0------------
1961-06-20 15.1 20.3 6.7- 63.3- 0.3 2.3---- 0.0------------
1961-06-19 15.1 22.0 12.1- 76.5- 3.0 3.3---- 0.0------------
1961-06-18 20.8 27.9 11.1- 67.8- 0.3 4.3---- 0.3------------
1961-06-17 17.2 23.6 5.9- 71.5- 4.0 2.3---- 0.0------------
1961-06-16 13.3 20.6 6.0- 79.3- 3.7 3.3---- 0.0------------
317.1 ms

 

Źródłem pochodzenia danych jest Instytut Meteorologii i Gospodarki Wodnej – Państwowy Instytut Badawczy. Dane Instytutu Meteorologii i Gospodarki Wodnej – Państwowego Instytutu Badawczego zostały przetworzone.

Dane źródłowe można odnaleźć na stronie https://dane.imgw.pl